Time;durP1;ratioP1;P1;durP2;ratioP2;P2;SDS_P1;SDS_P2;PMS_P1;PMS_P2;Temp;Humidity;BMP_temperature;BMP_pressure;BME280_temperature;BME280_humidity;BME280_pressure;Samples;Min_cycle;Max_cycle;Signal;HPM_P1;HPM_P2
2023/05/07 00:01:35;;;;;;;;;12.00;11.00;24.10;41.90;;;;;;111529;1238;54396;-61
2023/05/07 00:04:03;;;;;;;;;14.00;12.00;24.00;41.90;;;;;;111311;1237;49796;-61
2023/05/07 00:06:30;;;;;;;;;13.00;12.00;24.00;41.90;;;;;;111400;1241;48897;-62
2023/05/07 00:08:57;;;;;;;;;13.25;11.00;24.00;42.10;;;;;;111573;1241;45732;-63
2023/05/07 00:11:25;;;;;;;;;14.50;13.25;24.00;41.90;;;;;;111440;1241;56402;-62
2023/05/07 00:13:53;;;;;;;;;11.00;10.00;24.00;41.90;;;;;;111553;1238;54595;-62
2023/05/07 00:16:20;;;;;;;;;12.00;11.00;24.00;41.90;;;;;;111531;1237;50433;-63
2023/05/07 00:18:47;;;;;;;;;10.75;9.75;24.00;42.10;;;;;;111468;1239;49293;-63
2023/05/07 00:21:14;;;;;;;;;14.75;13.75;24.00;41.90;;;;;;111391;1243;46130;-62
2023/05/07 00:23:41;;;;;;;;;13.00;11.00;24.00;41.90;;;;;;111619;1237;55892;-63
2023/05/07 00:26:08;;;;;;;;;12.00;11.00;24.00;42.00;;;;;;111480;1237;53577;-63
2023/05/07 00:28:35;;;;;;;;;14.50;13.25;24.00;42.00;;;;;;111463;1237;50167;-62
2023/05/07 00:31:02;;;;;;;;;15.75;12.75;23.90;41.80;;;;;;111550;1238;49992;-63
2023/05/07 00:33:29;;;;;;;;;14.00;13.00;23.90;41.80;;;;;;111473;1243;46068;-64
2023/05/07 00:35:56;;;;;;;;;14.75;13.25;23.90;41.90;;;;;;111492;1244;55267;-64
2023/05/07 00:38:23;;;;;;;;;14.00;12.75;23.90;41.90;;;;;;111551;1241;54241;-62
2023/05/07 00:40:51;;;;;;;;;11.00;10.00;23.90;41.80;;;;;;111496;1239;49588;-63
2023/05/07 00:43:18;;;;;;;;;14.75;13.75;23.90;41.80;;;;;;111402;1243;48993;-63
2023/05/07 00:45:45;;;;;;;;;14.00;13.00;23.90;41.80;;;;;;111455;1242;45779;-63
2023/05/07 00:48:12;;;;;;;;;14.75;12.00;23.90;41.90;;;;;;111585;1238;56434;-62
2023/05/07 00:50:39;;;;;;;;;12.25;11.25;23.90;41.80;;;;;;111554;1237;54434;-62
2023/05/07 00:53:07;;;;;;;;;14.00;13.00;23.90;41.80;;;;;;111558;1238;49122;-62
2023/05/07 00:55:35;;;;;;;;;15.50;12.75;23.90;41.30;;;;;;111488;1241;49374;-63
2023/05/07 00:58:02;;;;;;;;;13.33;12.33;23.90;41.80;;;;;;111556;1238;45184;-63
2023/05/07 01:00:29;;;;;;;;;13.00;11.00;23.90;41.80;;;;;;111593;1241;55891;-63
2023/05/07 01:02:57;;;;;;;;;12.33;11.00;23.90;41.80;;;;;;111444;1243;54961;-62
2023/05/07 01:05:26;;;;;;;;;14.00;12.00;23.90;41.80;;;;;;111471;1241;50069;-62
2023/05/07 01:07:54;;;;;;;;;12.75;11.75;23.90;42.30;;;;;;111283;1243;48829;-62
2023/05/07 01:10:22;;;;;;;;;12.75;11.50;23.90;41.80;;;;;;111368;1239;45728;-62
2023/05/07 01:12:50;;;;;;;;;12.00;11.00;23.90;41.70;;;;;;111559;1241;55943;-63
2023/05/07 01:15:17;;;;;;;;;13.00;12.00;23.80;41.80;;;;;;111500;1244;53904;-63
2023/05/07 01:17:45;;;;;;;;;12.25;11.25;23.80;41.70;;;;;;111402;1243;50030;-63
2023/05/07 01:20:12;;;;;;;;;12.33;11.00;23.80;41.60;;;;;;111467;1242;49301;-62
2023/05/07 01:22:40;;;;;;;;;13.00;12.00;23.80;41.70;;;;;;111584;1238;45458;-64
2023/05/07 01:25:07;;;;;;;;;15.00;12.00;23.80;41.70;;;;;;111577;1241;55210;-65
2023/05/07 01:27:36;;;;;;;;;13.67;12.67;23.80;41.90;;;;;;111507;1241;54338;-63
2023/05/07 01:30:04;;;;;;;;;13.00;12.00;23.80;41.70;;;;;;111303;1241;50099;-62
2023/05/07 01:32:33;;;;;;;;;14.25;12.75;23.80;41.70;;;;;;111527;1243;49226;-64
2023/05/07 01:35:02;;;;;;;;;11.25;10.50;23.80;41.70;;;;;;111590;1240;46712;-63
2023/05/07 01:37:29;;;;;;;;;14.00;13.00;23.70;41.60;;;;;;111534;1242;55948;-62
2023/05/07 01:39:57;;;;;;;;;11.00;10.00;23.80;41.70;;;;;;111378;1240;54727;-63
2023/05/07 01:42:24;;;;;;;;;10.00;9.00;23.80;41.70;;;;;;111374;1242;49920;-64
2023/05/07 01:44:51;;;;;;;;;13.00;10.00;23.70;41.70;;;;;;111558;1237;49595;-64
2023/05/07 01:47:19;;;;;;;;;11.75;10.75;23.80;41.80;;;;;;111592;1240;46156;-63
2023/05/07 01:49:46;;;;;;;;;13.67;12.67;23.80;41.90;;;;;;111302;1243;56177;-63
2023/05/07 01:52:14;;;;;;;;;14.50;12.50;23.80;41.90;;;;;;111343;1240;53785;-68
2023/05/07 01:54:41;;;;;;;;;13.33;12.00;23.80;42.10;;;;;;111483;1236;49284;-63
2023/05/07 01:57:08;;;;;;;;;15.00;14.00;23.70;41.90;;;;;;111482;1241;48766;-62
2023/05/07 01:59:35;;;;;;;;;14.00;13.00;23.70;42.10;;;;;;111355;1241;46528;-63
2023/05/07 02:02:02;;;;;;;;;13.75;12.75;23.70;41.90;;;;;;111620;1238;55043;-62
2023/05/07 02:04:29;;;;;;;;;13.75;12.75;23.70;41.90;;;;;;111461;1237;54270;-62
2023/05/07 02:06:56;;;;;;;;;12.50;11.25;23.70;41.90;;;;;;111458;1242;49293;-62
2023/05/07 02:09:23;;;;;;;;;11.75;10.75;23.70;41.90;;;;;;111504;1237;49265;-62
2023/05/07 02:11:50;;;;;;;;;13.75;12.75;23.70;41.80;;;;;;111499;1237;45361;-62
2023/05/07 02:14:17;;;;;;;;;11.00;10.25;23.70;41.80;;;;;;111474;1236;57220;-62
2023/05/07 02:16:44;;;;;;;;;12.75;11.75;23.70;41.80;;;;;;111371;1241;54750;-63
2023/05/07 02:19:11;;;;;;;;;13.75;12.75;23.70;41.80;;;;;;111378;1238;49633;-62
2023/05/07 02:21:39;;;;;;;;;14.00;12.50;23.70;41.80;;;;;;111534;1238;49723;-62
2023/05/07 02:24:06;;;;;;;;;12.75;11.75;23.70;41.80;;;;;;111570;1243;46308;-62
2023/05/07 02:26:34;;;;;;;;;14.67;13.00;23.70;41.90;;;;;;111576;1242;55910;-62
2023/05/07 02:29:00;;;;;;;;;11.75;10.50;23.60;41.70;;;;;;111566;1238;53785;-61
2023/05/07 02:31:27;;;;;;;;;14.50;12.00;23.60;41.70;;;;;;111434;1241;49996;-61
2023/05/07 02:33:54;;;;;;;;;11.75;10.00;23.60;41.80;;;;;;111495;1242;49401;-62
2023/05/07 02:36:21;;;;;;;;;14.67;12.67;23.60;41.70;;;;;;111838;1238;46497;-61
2023/05/07 02:38:48;;;;;;;;;14.33;11.67;23.60;41.70;;;;;;111554;1237;56529;-61
2023/05/07 02:41:15;;;;;;;;;13.50;12.50;23.60;41.70;;;;;;111558;1238;53486;-62
2023/05/07 02:43:42;;;;;;;;;12.00;11.00;23.60;41.90;;;;;;111512;1238;49047;-62
2023/05/07 02:46:09;;;;;;;;;11.00;10.00;23.60;41.90;;;;;;111487;1241;49748;-63
2023/05/07 02:48:36;;;;;;;;;13.00;12.00;23.60;41.70;;;;;;111438;1242;45427;-61
2023/05/07 02:51:05;;;;;;;;;12.75;11.50;23.60;41.90;;;;;;111564;1241;56061;-62
2023/05/07 02:53:32;;;;;;;;;13.00;11.00;23.60;41.70;;;;;;111467;1237;54778;-62
2023/05/07 02:56:00;;;;;;;;;11.25;10.00;23.60;41.70;;;;;;111453;1241;50488;-62
2023/05/07 02:58:28;;;;;;;;;12.67;10.67;23.60;41.80;;;;;;111588;1242;49327;-62
2023/05/07 03:00:55;;;;;;;;;14.25;13.00;23.60;41.70;;;;;;111408;1237;45521;-61
2023/05/07 03:03:22;;;;;;;;;11.75;10.75;23.60;42.00;;;;;;111443;1238;55784;-61
2023/05/07 03:05:49;;;;;;;;;13.00;11.00;23.50;41.90;;;;;;111569;1238;54138;-62
2023/05/07 03:08:16;;;;;;;;;11.67;9.67;23.50;41.70;;;;;;111373;1241;49886;-62
2023/05/07 03:10:43;;;;;;;;;14.25;11.75;23.50;41.60;;;;;;111555;1241;49052;-62
2023/05/07 03:13:10;;;;;;;;;12.00;9.75;23.50;42.20;;;;;;111444;1242;45383;-62
2023/05/07 03:15:37;;;;;;;;;13.75;12.75;23.50;41.90;;;;;;111557;1241;56974;-61
2023/05/07 03:18:04;;;;;;;;;11.00;10.00;23.50;41.70;;;;;;111542;1237;53684;-62
2023/05/07 03:20:31;;;;;;;;;13.75;12.75;23.50;41.70;;;;;;111519;1237;49935;-62
2023/05/07 03:22:58;;;;;;;;;11.75;10.75;23.50;41.70;;;;;;111602;1240;49718;-61
2023/05/07 03:25:25;;;;;;;;;15.67;13.00;23.50;41.70;;;;;;111567;1238;45837;-61
2023/05/07 03:27:52;;;;;;;;;12.00;11.00;23.50;41.70;;;;;;111415;1237;55888;-61
2023/05/07 03:30:20;;;;;;;;;12.67;11.67;23.50;41.70;;;;;;111554;1241;53458;-61
2023/05/07 03:32:46;;;;;;;;;13.50;12.00;23.40;41.60;;;;;;111563;1244;49243;-61
2023/05/07 03:35:14;;;;;;;;;11.00;10.00;23.50;41.70;;;;;;111405;1241;48873;-62
2023/05/07 03:37:41;;;;;;;;;14.00;11.67;23.40;41.70;;;;;;111535;1241;45358;-62
2023/05/07 03:40:10;;;;;;;;;13.75;12.00;23.40;41.60;;;;;;111588;1237;55605;-61
2023/05/07 03:42:36;;;;;;;;;12.67;11.67;23.40;41.70;;;;;;111379;1238;55010;-63
2023/05/07 03:45:04;;;;;;;;;12.00;11.00;23.40;41.60;;;;;;111189;1238;49380;-62
2023/05/07 03:47:31;;;;;;;;;13.25;12.00;23.40;41.60;;;;;;111410;1243;49806;-61
2023/05/07 03:49:59;;;;;;;;;12.00;11.00;23.40;41.60;;;;;;111470;1238;45417;-61
2023/05/07 03:52:26;;;;;;;;;11.25;10.25;23.40;41.60;;;;;;111499;1241;56107;-60
2023/05/07 03:54:53;;;;;;;;;12.00;11.00;23.40;41.60;;;;;;111314;1238;54112;-60
2023/05/07 03:57:20;;;;;;;;;14.00;11.00;23.40;41.60;;;;;;111512;1241;49228;-61
2023/05/07 03:59:47;;;;;;;;;11.00;10.00;23.40;41.60;;;;;;111445;1238;49055;-61
2023/05/07 04:02:14;;;;;;;;;15.33;11.33;23.40;41.60;;;;;;111293;1243;45335;-62
2023/05/07 04:04:41;;;;;;;;;12.00;11.00;23.40;41.60;;;;;;111300;1241;55298;-61
2023/05/07 04:07:08;;;;;;;;;11.50;10.00;23.40;41.60;;;;;;111545;1237;53424;-62
2023/05/07 04:09:35;;;;;;;;;14.75;12.50;23.40;41.60;;;;;;111387;1238;49090;-60
2023/05/07 04:12:02;;;;;;;;;11.00;10.00;23.40;41.60;;;;;;111530;1237;50026;-60
2023/05/07 04:14:31;;;;;;;;;11.75;10.75;23.40;41.60;;;;;;111516;1237;45499;-63
2023/05/07 04:16:59;;;;;;;;;12.75;11.50;23.40;41.80;;;;;;111521;1242;55247;-62
2023/05/07 04:19:26;;;;;;;;;11.75;10.75;23.40;41.60;;;;;;111508;1242;54046;-62
2023/05/07 04:21:54;;;;;;;;;14.00;13.33;23.30;41.70;;;;;;111423;1242;48969;-61
2023/05/07 04:24:21;;;;;;;;;14.00;13.00;23.30;41.50;;;;;;111465;1239;49527;-61
2023/05/07 04:26:48;;;;;;;;;10.67;9.00;23.30;41.50;;;;;;111486;1241;46732;-61
2023/05/07 04:29:14;;;;;;;;;11.00;10.00;23.30;41.50;;;;;;111449;1239;55750;-61
2023/05/07 04:31:44;;;;;;;;;11.75;10.75;23.30;41.50;;;;;;111450;1242;53466;-61
2023/05/07 04:34:11;;;;;;;;;11.75;10.75;23.30;41.50;;;;;;111518;1237;50268;-61
2023/05/07 04:36:38;;;;;;;;;13.25;10.75;23.30;41.60;;;;;;111505;1238;51322;-61
2023/05/07 04:39:06;;;;;;;;;11.75;10.75;23.30;41.60;;;;;;111459;1238;46489;-63
2023/05/07 04:41:33;;;;;;;;;14.00;11.25;23.30;41.50;;;;;;111234;1239;55440;-61
2023/05/07 04:44:00;;;;;;;;;12.00;11.00;23.30;41.50;;;;;;111486;1241;53785;-62
2023/05/07 04:46:27;;;;;;;;;12.00;10.00;23.30;41.60;;;;;;111194;1241;49079;-62
2023/05/07 04:48:54;;;;;;;;;13.50;12.25;23.30;41.50;;;;;;111457;1241;49617;-63
2023/05/07 04:51:21;;;;;;;;;11.50;10.00;23.30;41.50;;;;;;111656;1238;45396;-61
2023/05/07 04:53:48;;;;;;;;;12.75;10.75;23.30;41.50;;;;;;111441;1241;55680;-62
2023/05/07 04:56:15;;;;;;;;;13.75;12.00;23.30;41.50;;;;;;111437;1239;53804;-63
2023/05/07 04:58:42;;;;;;;;;12.75;11.75;23.30;41.60;;;;;;111331;1242;49181;-62
2023/05/07 05:01:09;;;;;;;;;12.00;11.00;23.20;41.00;;;;;;111382;1244;49467;-62
2023/05/07 05:03:36;;;;;;;;;14.00;12.75;23.30;41.60;;;;;;111607;1237;45417;-63
2023/05/07 05:06:03;;;;;;;;;16.00;13.00;23.20;41.50;;;;;;111440;1241;55908;-61
2023/05/07 05:08:30;;;;;;;;;12.25;10.75;23.20;41.50;;;;;;111506;1238;54186;-61
2023/05/07 05:10:58;;;;;;;;;12.67;10.67;23.20;41.40;;;;;;111463;1240;50625;-61
2023/05/07 05:13:25;;;;;;;;;12.25;10.75;23.20;41.40;;;;;;111462;1241;48793;-61
2023/05/07 05:15:51;;;;;;;;;12.67;11.00;23.20;41.70;;;;;;111177;1240;45916;-62
2023/05/07 05:18:18;;;;;;;;;14.25;12.00;23.20;41.50;;;;;;111661;1237;56074;-62
2023/05/07 05:20:45;;;;;;;;;12.00;11.00;23.20;41.50;;;;;;111562;1237;53967;-62
2023/05/07 05:23:12;;;;;;;;;11.75;10.75;23.20;41.70;;;;;;111575;1238;49702;-67
2023/05/07 05:25:40;;;;;;;;;14.33;12.67;23.20;41.50;;;;;;111386;1237;49714;-62
2023/05/07 05:28:07;;;;;;;;;15.25;13.50;23.20;42.10;;;;;;111195;1240;46035;-62
2023/05/07 05:30:34;;;;;;;;;12.00;10.75;23.20;41.90;;;;;;111378;1238;55552;-61
2023/05/07 05:33:01;;;;;;;;;13.00;12.00;23.20;42.00;;;;;;111420;1238;54148;-62
2023/05/07 05:35:28;;;;;;;;;15.33;11.00;23.20;41.80;;;;;;111405;1238;49091;-61
2023/05/07 05:37:54;;;;;;;;;14.33;11.00;23.10;41.70;;;;;;111464;1238;48731;-61
2023/05/07 05:40:21;;;;;;;;;13.67;11.67;23.10;41.60;;;;;;111463;1245;46215;-62
2023/05/07 05:42:48;;;;;;;;;15.67;13.00;23.10;41.60;;;;;;111552;1241;56184;-61
2023/05/07 05:45:15;;;;;;;;;13.50;11.75;23.20;41.70;;;;;;111388;1238;53404;-61
2023/05/07 05:47:42;;;;;;;;;15.50;12.50;23.20;42.20;;;;;;111525;1238;49897;-65
2023/05/07 05:50:09;;;;;;;;;14.00;12.00;23.20;41.80;;;;;;111261;1241;50171;-63
2023/05/07 05:52:36;;;;;;;;;12.75;11.25;23.20;41.60;;;;;;111634;1241;46035;-61
2023/05/07 05:55:04;;;;;;;;;12.33;9.00;23.20;41.60;;;;;;111353;1240;55581;-65
2023/05/07 05:57:31;;;;;;;;;15.00;12.25;23.20;41.80;;;;;;111557;1243;54206;-62
2023/05/07 05:59:57;;;;;;;;;11.00;10.00;23.20;41.80;;;;;;111469;1239;50508;-61
2023/05/07 06:02:24;;;;;;;;;14.50;13.25;23.20;41.50;;;;;;111338;1239;49801;-62
2023/05/07 06:04:52;;;;;;;;;13.00;12.00;23.10;41.40;;;;;;111383;1238;46053;-62
2023/05/07 06:07:19;;;;;;;;;15.00;11.75;23.10;41.50;;;;;;111533;1237;55864;-63
2023/05/07 06:09:46;;;;;;;;;14.25;12.00;23.20;41.50;;;;;;111389;1237;54361;-63
2023/05/07 06:12:13;;;;;;;;;11.00;10.00;23.20;41.80;;;;;;111549;1237;49255;-62
2023/05/07 06:14:40;;;;;;;;;14.00;13.00;23.10;41.40;;;;;;111350;1241;49603;-62
2023/05/07 06:17:07;;;;;;;;;13.00;12.00;23.10;41.70;;;;;;111380;1240;46397;-63
2023/05/07 06:19:34;;;;;;;;;14.67;13.00;23.10;41.40;;;;;;111643;1241;55870;-61
2023/05/07 06:22:02;;;;;;;;;11.50;10.00;23.20;41.50;;;;;;111427;1239;54740;-62
2023/05/07 06:24:29;;;;;;;;;12.75;11.00;23.10;41.40;;;;;;111316;1237;49374;-62
2023/05/07 06:26:58;;;;;;;;;12.00;10.00;23.10;41.40;;;;;;111506;1238;50425;-62
2023/05/07 06:29:30;;;;;;;;;13.00;11.75;23.20;41.40;;;;;;111536;1237;45797;-62
2023/05/07 06:32:06;;;;;;;;;12.50;11.50;23.20;41.70;;;;;;111556;1241;56095;-62
2023/05/07 06:34:33;;;;;;;;;15.33;12.67;23.10;41.40;;;;;;111475;1237;55020;-61
2023/05/07 06:37:01;;;;;;;;;12.00;11.00;23.10;41.40;;;;;;111231;1242;49204;-62
2023/05/07 06:39:28;;;;;;;;;13.50;11.00;23.20;41.40;;;;;;111425;1240;48981;-62
2023/05/07 06:41:55;;;;;;;;;13.00;12.00;23.10;41.30;;;;;;111401;1238;45222;-61
2023/05/07 06:44:22;;;;;;;;;12.00;11.00;23.10;41.40;;;;;;111365;1241;55550;-62
2023/05/07 06:46:49;;;;;;;;;14.67;12.67;23.10;41.60;;;;;;111398;1238;55241;-61
2023/05/07 06:49:16;;;;;;;;;15.00;14.00;23.10;41.40;;;;;;111438;1242;49834;-60
2023/05/07 06:51:42;;;;;;;;;12.75;9.50;23.10;41.40;;;;;;111517;1237;50542;-62
2023/05/07 06:54:09;;;;;;;;;16.00;14.00;23.10;41.40;;;;;;111440;1236;45236;-61
2023/05/07 06:56:36;;;;;;;;;12.75;11.50;23.10;41.70;;;;;;111368;1242;55218;-62
2023/05/07 06:59:03;;;;;;;;;13.00;12.00;23.10;41.70;;;;;;111284;1237;54944;-64
2023/05/07 07:01:30;;;;;;;;;11.00;10.00;23.10;41.50;;;;;;111578;1241;49686;-64
2023/05/07 07:03:57;;;;;;;;;12.50;11.00;23.10;41.70;;;;;;111451;1243;50133;-65
2023/05/07 07:06:25;;;;;;;;;12.75;11.75;23.10;41.50;;;;;;111382;1237;45904;-63
2023/05/07 07:08:52;;;;;;;;;11.25;10.25;23.10;41.80;;;;;;111536;1239;55107;-63
2023/05/07 07:11:19;;;;;;;;;12.00;10.67;23.10;41.50;;;;;;111391;1241;54166;-62
2023/05/07 07:13:46;;;;;;;;;15.00;13.00;23.10;41.50;;;;;;111614;1240;49787;-63
2023/05/07 07:16:12;;;;;;;;;11.00;10.00;23.10;41.50;;;;;;111231;1237;49690;-61
2023/05/07 07:18:39;;;;;;;;;13.00;12.00;23.10;41.80;;;;;;111502;1241;45579;-63
2023/05/07 07:21:07;;;;;;;;;14.25;12.00;23.10;41.20;;;;;;111404;1239;56487;-63
2023/05/07 07:23:34;;;;;;;;;12.50;11.50;23.10;41.50;;;;;;111367;1239;53150;-63
2023/05/07 07:26:01;;;;;;;;;12.50;11.50;23.10;41.80;;;;;;111316;1238;48935;-63
2023/05/07 07:28:28;;;;;;;;;14.75;13.75;23.10;41.90;;;;;;111399;1239;50826;-62
2023/05/07 07:30:55;;;;;;;;;14.00;13.00;23.10;41.50;;;;;;111459;1243;45860;-62
2023/05/07 07:33:22;;;;;;;;;13.00;12.00;23.10;41.50;;;;;;111481;1239;55297;-62
2023/05/07 07:35:49;;;;;;;;;13.00;11.75;23.10;41.80;;;;;;111358;1237;54242;-62
2023/05/07 07:38:16;;;;;;;;;13.75;12.00;23.00;41.50;;;;;;111475;1237;49881;-62
2023/05/07 07:40:44;;;;;;;;;15.00;14.00;23.10;41.50;;;;;;111475;1243;50401;-62
2023/05/07 07:43:10;;;;;;;;;12.50;11.50;23.10;41.50;;;;;;111497;1240;46153;-60
2023/05/07 07:45:37;;;;;;;;;13.00;11.75;23.10;41.60;;;;;;111289;1237;55223;-60
2023/05/07 07:48:05;;;;;;;;;13.75;12.50;23.00;41.50;;;;;;111297;1242;53515;-62
2023/05/07 07:50:32;;;;;;;;;15.75;12.75;23.00;41.50;;;;;;111607;1239;50754;-62
2023/05/07 07:52:58;;;;;;;;;13.75;12.00;23.00;41.60;;;;;;111367;1240;49176;-60
2023/05/07 07:55:26;;;;;;;;;13.50;12.25;23.00;41.50;;;;;;111283;1238;46608;-62
2023/05/07 07:57:53;;;;;;;;;12.50;11.50;23.00;41.50;;;;;;111388;1241;56369;-61
2023/05/07 08:00:20;;;;;;;;;16.67;13.00;23.00;41.70;;;;;;111515;1241;53442;-64
2023/05/07 08:02:48;;;;;;;;;13.67;13.00;23.00;41.60;;;;;;111388;1241;49607;-62
2023/05/07 08:05:15;;;;;;;;;15.00;12.50;23.00;41.60;;;;;;111199;1238;49751;-62
2023/05/07 08:07:42;;;;;;;;;13.67;11.67;23.00;41.60;;;;;;111410;1237;45181;-63
2023/05/07 08:10:09;;;;;;;;;14.00;12.25;23.10;41.70;;;;;;111577;1238;55541;-61
2023/05/07 08:12:36;;;;;;;;;17.25;12.75;23.10;41.80;;;;;;111595;1237;54737;-62
2023/05/07 08:15:03;;;;;;;;;14.25;13.00;23.00;41.60;;;;;;111348;1244;50449;-62
2023/05/07 08:17:30;;;;;;;;;13.50;11.25;23.00;41.60;;;;;;111374;1238;49137;-63
2023/05/07 08:19:58;;;;;;;;;13.00;12.00;23.00;41.60;;;;;;111626;1237;46113;-66
2023/05/07 08:22:25;;;;;;;;;14.00;13.00;23.00;41.60;;;;;;111476;1237;55762;-64
2023/05/07 08:24:53;;;;;;;;;13.00;11.25;23.00;41.60;;;;;;111572;1238;53479;-66
2023/05/07 08:27:20;;;;;;;;;14.00;12.67;23.00;41.60;;;;;;111414;1238;49105;-66
2023/05/07 08:29:47;;;;;;;;;18.75;16.50;23.00;41.80;;;;;;111550;1244;49215;-66
2023/05/07 08:32:15;;;;;;;;;18.75;17.75;23.00;44.30;;;;;;111425;1244;46333;-67
2023/05/07 08:34:42;;;;;;;;;16.25;14.00;23.00;43.70;;;;;;111522;1241;56236;-67
2023/05/07 08:37:09;;;;;;;;;16.75;15.75;23.00;43.10;;;;;;111561;1238;53776;-65
2023/05/07 08:39:36;;;;;;;;;18.00;13.00;23.10;43.10;;;;;;111547;1241;50149;-68
2023/05/07 08:42:04;;;;;;;;;15.00;13.25;23.10;42.80;;;;;;111537;1241;49291;-64
2023/05/07 08:44:35;;;;;;;;;19.00;13.67;23.00;42.80;;;;;;111562;1237;45715;-65
2023/05/07 08:47:02;;;;;;;;;18.75;13.50;23.00;42.70;;;;;;111477;1243;55976;-64
2023/05/07 08:49:29;;;;;;;;;20.50;15.25;23.10;42.70;;;;;;111455;1238;53416;-64
2023/05/07 08:51:56;;;;;;;;;21.50;16.75;23.10;42.80;;;;;;111468;1241;49531;-65
2023/05/07 08:54:23;;;;;;;;;20.00;17.25;23.10;42.60;;;;;;111508;1238;49152;-64
2023/05/07 08:56:50;;;;;;;;;19.00;15.25;23.00;42.60;;;;;;111399;1241;45692;-64
2023/05/07 08:59:17;;;;;;;;;19.33;15.67;23.10;42.70;;;;;;110558;1238;1231101;-66
2023/05/07 09:01:44;;;;;;;;;18.25;17.00;23.10;42.60;;;;;;111551;1241;54103;-65
2023/05/07 09:04:12;;;;;;;;;14.75;13.75;23.10;42.60;;;;;;111479;1243;49562;-64
2023/05/07 09:06:41;;;;;;;;;15.50;14.00;23.10;42.60;;;;;;111621;1238;49985;-64
2023/05/07 09:09:08;;;;;;;;;15.75;13.75;23.10;42.60;;;;;;111656;1238;45419;-64
2023/05/07 09:11:35;;;;;;;;;19.75;15.75;23.10;42.80;;;;;;111554;1241;55985;-65
2023/05/07 09:14:02;;;;;;;;;15.25;12.50;23.00;42.00;;;;;;111537;1241;53790;-64
2023/05/07 09:16:30;;;;;;;;;17.33;16.00;23.00;42.80;;;;;;111478;1241;49151;-64
2023/05/07 09:19:00;;;;;;;;;15.75;15.00;23.00;42.50;;;;;;111355;1241;51036;-64
2023/05/07 09:21:27;;;;;;;;;15.00;13.75;23.00;42.50;;;;;;111578;1241;45637;-64
2023/05/07 09:23:55;;;;;;;;;14.00;13.00;23.00;42.50;;;;;;111295;1242;55534;-64
2023/05/07 09:26:23;;;;;;;;;16.00;13.00;23.00;42.50;;;;;;111473;1238;54504;-64
2023/05/07 09:28:51;;;;;;;;;15.33;14.00;23.10;42.50;;;;;;111536;1239;49718;-64
2023/05/07 09:31:18;;;;;;;;;18.50;15.75;23.10;42.50;;;;;;111565;1237;49817;-65
2023/05/07 09:33:46;;;;;;;;;17.00;13.67;23.10;42.50;;;;;;111395;1238;46105;-64
2023/05/07 09:36:13;;;;;;;;;17.75;14.75;23.10;42.60;;;;;;111509;1237;55349;-65
2023/05/07 09:38:40;;;;;;;;;18.00;15.00;23.10;42.70;;;;;;111439;1243;53943;-63
2023/05/07 09:41:11;;;;;;;;;13.00;12.00;23.10;42.50;;;;;;111612;1241;49333;-65
2023/05/07 09:43:39;;;;;;;;;14.00;13.00;23.10;42.50;;;;;;111401;1241;49007;-65
2023/05/07 09:46:16;;;;;;;;;15.00;14.00;23.10;42.70;;;;;;111453;1238;45949;-64
2023/05/07 09:48:44;;;;;;;;;17.50;15.00;23.00;42.50;;;;;;111430;1238;56524;-65
2023/05/07 09:51:38;;;;;;;;;16.75;15.75;23.10;42.50;;;;;;111489;1241;53893;-64
2023/05/07 09:54:05;;;;;;;;;14.00;13.00;23.10;42.50;;;;;;111364;1237;50267;-64
2023/05/07 09:56:32;;;;;;;;;16.67;15.67;23.10;42.50;;;;;;111368;1239;49239;-69
2023/05/07 09:59:00;;;;;;;;;15.50;12.25;23.10;42.60;;;;;;111676;1239;45567;-69
2023/05/07 10:01:29;;;;;;;;;14.75;13.75;23.10;42.40;;;;;;111533;1238;55961;-73
2023/05/07 10:03:57;;;;;;;;;16.00;13.33;23.10;42.60;;;;;;111437;1237;54620;-66
2023/05/07 10:06:25;;;;;;;;;19.00;14.50;23.10;42.40;;;;;;111328;1242;49861;-66
2023/05/07 10:08:52;;;;;;;;;17.33;14.67;23.10;42.40;;;;;;111341;1240;49073;-68
2023/05/07 10:11:21;;;;;;;;;21.67;16.00;23.20;42.70;;;;;;111780;1237;45858;-69
2023/05/07 10:13:48;;;;;;;;;15.50;14.25;23.20;43.00;;;;;;111669;1243;55547;-67
2023/05/07 10:16:16;;;;;;;;;15.00;13.33;23.10;43.00;;;;;;111690;1241;54826;-66
2023/05/07 10:18:43;;;;;;;;;16.75;14.75;23.20;42.70;;;;;;111481;1243;49500;-66
2023/05/07 10:21:18;;;;;;;;;16.00;13.25;23.20;42.70;;;;;;111705;1238;49371;-66
2023/05/07 10:23:48;;;;;;;;;18.75;16.75;23.20;42.70;;;;;;111221;1237;45649;-67
2023/05/07 10:26:17;;;;;;;;;14.67;13.67;23.20;42.70;;;;;;111603;1237;55488;-67
2023/05/07 10:28:46;;;;;;;;;16.00;15.00;23.30;42.80;;;;;;111629;1238;53901;-67
2023/05/07 10:31:25;;;;;;;;;15.75;14.50;23.30;42.70;;;;;;111598;1241;51074;-68
2023/05/07 10:33:54;;;;;;;;;14.00;13.00;23.30;42.70;;;;;;111992;1241;48932;-66
2023/05/07 10:36:22;;;;;;;;;16.00;15.00;23.30;42.90;;;;;;111284;1240;45389;-67
2023/05/07 10:38:50;;;;;;;;;14.67;13.67;23.30;42.70;;;;;;111563;1237;56307;-67
2023/05/07 10:41:18;;;;;;;;;15.50;14.00;23.30;42.70;;;;;;111578;1238;54779;-67
2023/05/07 10:43:45;;;;;;;;;17.25;15.75;23.30;42.70;;;;;;111879;1241;50425;-68
2023/05/07 10:46:17;;;;;;;;;14.75;13.75;23.30;42.60;;;;;;111668;1242;49138;-68
2023/05/07 10:49:00;;;;;;;;;16.75;15.00;23.30;42.60;;;;;;111538;1237;46271;-68
2023/05/07 10:51:28;;;;;;;;;12.75;11.75;23.30;42.50;;;;;;111584;1242;56758;-66
2023/05/07 10:54:10;;;;;;;;;18.67;16.67;23.30;42.50;;;;;;111801;1241;54024;-66
2023/05/07 10:56:38;;;;;;;;;12.00;11.00;23.40;42.60;;;;;;111369;1238;49882;-67
2023/05/07 10:59:35;;;;;;;;;19.00;16.00;23.40;42.60;;;;;;111577;1241;49302;-66
2023/05/07 11:02:03;;;;;;;;;15.50;13.25;23.40;42.80;;;;;;111524;1238;45744;-67
2023/05/07 11:04:34;;;;;;;;;14.67;13.67;23.50;42.70;;;;;;112006;1236;56540;-66
2023/05/07 11:07:11;;;;;;;;;14.75;12.75;23.50;42.60;;;;;;111424;1243;54489;-67
2023/05/07 11:09:51;;;;;;;;;15.75;13.75;23.60;42.60;;;;;;111500;1243;49715;-67
2023/05/07 11:12:36;;;;;;;;;14.00;13.00;23.60;42.80;;;;;;111645;1237;49606;-67
2023/05/07 11:15:07;;;;;;;;;15.25;14.00;23.60;42.60;;;;;;112006;1237;45339;-68
2023/05/07 11:17:35;;;;;;;;;15.50;13.75;23.70;42.70;;;;;;111635;1241;55546;-67
2023/05/07 11:20:02;;;;;;;;;12.75;11.75;23.70;42.60;;;;;;111406;1241;53731;-69
2023/05/07 11:22:36;;;;;;;;;16.50;15.50;23.80;42.70;;;;;;111391;1241;49284;-66
2023/05/07 11:25:03;;;;;;;;;15.00;14.00;23.80;42.60;;;;;;111212;1237;49787;-66
2023/05/07 11:27:30;;;;;;;;;15.67;13.33;23.80;42.60;;;;;;111569;1242;46198;-67
2023/05/07 11:29:58;;;;;;;;;15.75;13.50;23.80;42.50;;;;;;111705;1238;55268;-67
2023/05/07 11:32:25;;;;;;;;;14.67;13.67;23.90;43.00;;;;;;111671;1237;54316;-66
2023/05/07 11:34:53;;;;;;;;;15.00;14.00;23.90;42.70;;;;;;111063;1242;50002;-66
2023/05/07 11:37:21;;;;;;;;;14.75;13.75;23.90;42.70;;;;;;111546;1237;50389;-66
2023/05/07 11:39:51;;;;;;;;;14.75;13.75;24.00;42.70;;;;;;111581;1240;46046;-66
2023/05/07 11:42:38;;;;;;;;;13.50;12.50;23.90;42.60;;;;;;111677;1237;55631;-67
2023/05/07 11:45:07;;;;;;;;;15.75;14.75;23.90;42.60;;;;;;111319;1238;53342;-66
2023/05/07 11:47:34;;;;;;;;;14.75;12.00;24.00;42.60;;;;;;111598;1241;51475;-66
2023/05/07 11:50:07;;;;;;;;;14.75;12.00;24.10;42.60;;;;;;111519;1241;48861;-67
2023/05/07 11:52:34;;;;;;;;;16.67;11.33;24.10;42.60;;;;;;111471;1241;45365;-67
2023/05/07 11:55:03;;;;;;;;;14.25;12.75;24.10;42.60;;;;;;111189;1243;56236;-66
2023/05/07 11:57:33;;;;;;;;;16.75;14.25;24.20;42.70;;;;;;111521;1237;54251;-66
2023/05/07 12:00:04;;;;;;;;;13.00;12.00;24.20;43.00;;;;;;111480;1238;48987;-67
2023/05/07 12:02:31;;;;;;;;;16.00;15.00;24.20;43.40;;;;;;111462;1237;49040;-66
2023/05/07 12:05:00;;;;;;;;;16.50;14.00;24.20;43.50;;;;;;111456;1238;45637;-69
2023/05/07 12:07:27;;;;;;;;;16.50;13.75;24.20;43.20;;;;;;111602;1237;55065;-67
2023/05/07 12:09:54;;;;;;;;;15.33;14.33;24.20;43.90;;;;;;111532;1238;53684;-67
2023/05/07 12:12:21;;;;;;;;;16.25;15.00;24.30;44.20;;;;;;111473;1237;50608;-75
2023/05/07 12:14:48;;;;;;;;;15.00;14.00;24.30;44.30;;;;;;111888;1238;49003;-67
2023/05/07 12:17:16;;;;;;;;;17.00;16.00;24.30;44.50;;;;;;111542;1243;45533;-67
2023/05/07 12:19:44;;;;;;;;;15.75;14.75;24.30;44.20;;;;;;111602;1242;56750;-68
2023/05/07 12:22:12;;;;;;;;;15.00;14.00;24.40;44.10;;;;;;111511;1242;54887;-68